map of BIF home
BIF - Airport
Location
City:  Fort Bliss, Texas, United States
Near (Alt.):El Paso
Name:Biggs AAF Airport
Old (Alt.):Fort Bliss
ICAO:KBIF
IATA:BIF
FAA LID:BIF

Details
Type:Airport (Airfield)
Use:Military
Latitude:3150'58"N (31.849525)
Longitude:10622'48"W (-106.380038)
Datum:WGS 1984
Elevation:3947 ft (1203 m)
Variation:8.04E (WMM2015 magnetic declination)
-0.10 annual change
Runways:1
Longest:13554 × 150 ft (4131 × 45.5 m), paved

Time
Time Zone:UTC-6 (DST-5)
Local Time:

Weather
TAF:KBIF 222204Z 2222/2404 08009KT 9999 FEW050 QNH3021INS
BECMG 2302/2303 VRB06KT 9999 SKC QNH3011INS TX28/2321Z TN14/2312Z

Related Locations
Nearby:
Farthest:RRG: 11388 mi / 18327 km
Plaine Corail [Sir Gatan Duval Airport (Plaine Corail Airport)], Rodrigues Island, MU

Find:

   beyond  
but within

Other Information
Maps:
NOTAMs:
Links:
Sources:

  
  • flag of United States
  • flag of Texas
  

Airport Diagram

Airport diagram for BIF

Airport diagram PDF

Sectional Chart

Flight Planning
at skyvector.com

Satellite Image

Google Maps Satellite view

 

Copyright © 2004-2018 Karl L. Swartz. All rights reserved.
The Great Circle Mapper name and logo are trademarks of the Great Circle Mapper.
All other trademarks mentioned herein belong to their respective owners.
Please see credits for attibutions and further copyright information.

  Follow gcmap on Facebook Follow gcmap on Twitter Follow gcmap on Google+ GCmap on LinkedIn

hCard Microformat

Geo Microformat